Gorno-Altaysk, Russia
Current Conditions -  °F | °C
As of 1:30 AM on Wednesday 22 Oct 2014 (Local Time) from UNBB Reporting Station
Light Snow Light Snow  
Wind Chill: -8°   Ceiling: 3600
Heat Index: -2°   Visibility: 6mi
Dew Point: -7°   Wind: 16mph
Humidity: 69%   Direction: 250°WSW
Pressure: 30.21"   Gusts: 27mph
Location:  51.96°N, 85.96°E
Report Text: UNBB 211830Z 25007G12MPS 9000 -SN BKN036 M02/M07 Q1023 NOSIGRMK QFE745/0994 24CLRD66
Loading
Personal Weather Stations






























Interactive Weather Map
Tropical Storm Tracking
New forecast layout! Learn more

10-Day Weather Forecast

Advertisements
Track Severe Weather on mobile